Terminal Aerodrome Forecast
Issued by NWS Medford, OR

Home | Current Version | Previous Version | Text Only | Print | Product List | Glossary On
Versions: 1 2 3 4 5 6 7 8 9 10 11 12 13 14 15 16 17
000
FTUS46 KMFR 031747
TAFMFR
TAF
KMFR 031747Z 0318/0418 VRB03KT 1 1/2SM FU OVC020
     FM032300 30008KT 1SM FU SCT020 BKN090
     FM040400 VRB03KT 3SM FU BKN020 BKN090=

USA.gov is the U.S. government's official web portal to all federal, state and local government web resources and services.